Latest Weather Observations for Mount Ginini

IDN60801

Issued at 6:02 pm EST Thursday 30 July 2015 (issued every 30 minutes, with the page automatically refreshed every 10 minutes)

About weather observations | Map of weather stations | Latest weather observations for NSW | Other Formats
Station Details ID: 070349 Name: MOUNT GININI AWS Lat: -35.53 Lon: 148.77 Height: 1760.0 m
Data from the previous 72 hours. | See also: Recent months at Mount Ginini
Date/Time
EST
Temp
°C
App
Temp
°C
Dew
Point
Rel
Hum
%
Delta-T
°C
Wind Press
QNH
hPa
Press
MSL
hPa
Rain
since 9 am
mm
Dir
 
Spd
km/h
Gust
km/h
Spd
kts
Gust
kts
30/06:00pm -1.8 -9.0 -2.1 98 0.0 W 26 44 14 24 - - 0.0
30/05:35pm -1.8 -9.4 -2.1 98 0.0 W 28 48 15 26 - - 0.0
30/05:30pm -1.8 -9.0 -2.1 98 0.0 W 26 44 14 24 - - 0.0
30/05:00pm -1.8 -8.3 -2.1 98 0.0 WNW 22 44 12 24 - - 0.0
30/04:30pm -1.7 -8.2 -2.1 97 0.1 WNW 22 41 12 22 - - 0.0
30/04:00pm -1.7 -7.6 -2.3 96 0.1 WNW 19 33 10 18 - - 0.0
30/03:30pm -1.3 -8.1 -2.0 95 0.2 W 24 39 13 21 - - 0.0
30/03:00pm 0.0 -5.9 -0.8 94 0.3 WNW 20 33 11 18 - - 0.0
30/02:30pm 0.6 -5.8 -1.9 83 1.0 WNW 22 46 12 25 - - 0.0
30/02:00pm 0.5 -6.1 -3.4 75 1.5 WNW 22 39 12 21 - - 0.0
30/01:30pm 0.4 -6.2 -3.0 78 1.3 WNW 22 43 12 23 - - 0.0
30/01:00pm 1.1 -4.7 -1.3 84 1.0 WNW 19 41 10 22 - - 0.0
30/12:30pm 1.3 -3.9 0.4 94 0.4 W 17 33 9 18 - - 0.0
30/12:00pm 1.0 -3.9 -0.3 91 0.5 W 15 32 8 17 - - 0.0
30/11:30am 0.7 -5.1 -0.2 94 0.4 W 20 33 11 18 - - 0.0
30/11:00am 0.4 -5.3 -0.4 94 0.3 WNW 19 28 10 15 - - 0.0
30/10:30am -0.1 -5.8 -0.9 94 0.3 WNW 19 28 10 15 - - 0.0
30/10:00am -0.8 -6.8 -1.6 94 0.3 W 20 32 11 17 - - 0.0
30/09:30am -1.6 -7.5 -2.0 97 0.1 W 19 28 10 15 - - 0.0
30/09:00am -2.2 -8.3 -2.5 98 0.0 WSW 20 32 11 17 - - 0.0
30/08:30am -2.5 -8.7 -2.9 97 0.0 WSW 20 33 11 18 - - 0.0
30/08:00am -2.9 -9.9 -3.4 96 0.0 WSW 24 35 13 19 - - 0.0
30/07:30am -3.2 -9.8 -3.7 96 0.0 W 22 37 12 20 - - 0.0
30/07:00am -3.3 -10.0 -3.8 96 0.0 W 22 37 12 20 - - 0.0
30/06:30am -3.3 -9.9 -3.6 98 0.0 W 22 39 12 21 - - 0.0
30/06:00am -3.3 -9.6 -3.6 98 0.0 W 20 33 11 18 - - 0.0
30/05:30am -2.8 -9.4 -3.1 98 0.0 W 22 37 12 20 - - 0.0
30/05:00am -3.0 -9.0 -3.3 98 0.0 W 19 30 10 16 - - 0.0
30/04:30am -2.2 -8.7 -2.5 98 0.0 W 22 37 12 20 - - 0.0
30/04:00am -2.4 -9.3 -2.7 98 0.0 W 24 35 13 19 - - 0.0
30/03:30am -2.2 -9.5 -2.5 98 0.0 W 26 41 14 22 - - 0.0
30/03:00am -2.3 -9.6 -2.6 98 0.0 W 26 41 14 22 - - 0.0
30/02:30am -2.4 -9.3 -2.7 98 0.0 W 24 37 13 20 - - 0.0
30/02:00am -2.4 -9.7 -2.8 97 0.0 W 26 39 14 21 - - 0.0
30/01:30am -2.4 -9.3 -2.9 96 0.1 WNW 24 41 13 22 - - 0.0
30/01:00am -2.2 -9.5 -2.7 96 0.1 WNW 26 39 14 21 - - 0.0
30/12:30am -1.9 -9.6 -2.6 95 0.2 NW 28 43 15 23 - - 0.0
30/12:00am -2.1 -9.8 -2.6 96 0.1 WNW 28 39 15 21 - - 0.0
 
Date/Time
EST
Temp
°C
App
Temp
°C
Dew
Point
Rel
Hum
%
Delta-T
°C
Wind Press
QNH
hPa
Press
MSL
hPa
Rain
since 9 am
mm
Dir
 
Spd
km/h
Gust
km/h
Spd
kts
Gust
kts
29/11:30pm -1.8 -9.4 -2.5 95 0.2 NW 28 41 15 22 - - 0.0
29/11:00pm -1.8 -9.1 -2.5 95 0.2 WNW 26 37 14 20 - - 0.0
29/10:30pm -2.3 -8.5 -2.8 96 0.1 WNW 20 30 11 16 - - 0.0
29/10:00pm -2.2 -9.1 -3.0 94 0.2 WNW 24 33 13 18 - - 0.0
29/09:30pm -1.7 -9.1 -7.2 66 1.8 NW 24 35 13 19 - - 0.0
29/09:00pm 0.0 -6.4 -12.0 40 3.6 NNW 17 26 9 14 - - 0.0
29/08:30pm 0.4 -5.3 -13.2 35 4.0 NNW 13 24 7 13 - - 0.0
29/08:00pm 0.2 -5.6 -13.8 34 4.0 NNW 13 22 7 12 - - 0.0
29/07:30pm -1.3 -6.5 -5.9 71 1.5 WNW 13 20 7 11 - - 0.0
29/07:00pm -0.5 -5.9 -8.2 56 2.5 NW 13 19 7 10 - - 0.0
29/06:30pm 0.2 -4.8 -8.2 53 2.8 NNW 11 17 6 9 - - 0.0
29/06:00pm -1.0 -5.3 -1.3 98 0.1 NW 11 15 6 8 - - 0.0
29/05:30pm -1.2 -5.5 -1.5 98 0.1 W 11 19 6 10 - - 0.0
29/05:00pm -0.8 -6.2 -1.1 98 0.1 W 17 24 9 13 - - 0.0
29/04:30pm -0.4 -5.3 -0.8 97 0.1 W 15 24 8 13 - - 0.0
29/04:00pm 0.4 -4.5 -0.3 95 0.3 W 15 26 8 14 - - 0.0
29/03:30pm 1.1 -3.7 0.4 95 0.3 WNW 15 26 8 14 - - 0.0
29/03:00pm 1.3 -3.5 0.4 94 0.4 WNW 15 26 8 14 - - 0.0
29/02:30pm 1.8 -2.9 0.9 94 0.4 NW 15 24 8 13 - - 0.0
29/02:00pm 1.7 -2.6 0.8 94 0.4 WNW 13 24 7 13 - - 0.0
29/01:30pm 1.1 -3.3 0.4 95 0.3 NW 13 20 7 11 - - 0.0
29/01:00pm 1.0 -3.4 0.4 96 0.2 WNW 13 20 7 11 - - 0.0
29/12:30pm 0.9 -3.5 0.3 96 0.2 WNW 13 22 7 12 - - 0.0
29/12:00pm 0.5 -4.3 0.1 97 0.2 NW 15 22 8 12 - - 0.0
29/11:30am 0.1 -4.8 -0.3 97 0.2 NW 15 24 8 13 - - 0.0
29/11:00am 0.2 -4.6 -0.1 98 0.1 NW 15 26 8 14 - - 0.0
29/10:30am 0.1 -4.0 0.0 99 0.0 NNW 11 19 6 10 - - 0.0
29/10:00am 0.0 -4.1 -0.1 99 0.0 NNW 11 20 6 11 - - 0.0
29/09:30am -0.3 -4.4 -0.4 99 0.0 N 11 20 6 11 - - 0.0
29/09:00am -0.8 -4.6 -1.1 98 0.1 NNE 9 20 5 11 - - 0.2
29/08:30am -1.1 -4.6 -1.4 98 0.1 NNE 7 13 4 7 - - 0.2
29/08:00am -1.6 -5.6 -1.9 98 0.0 NNE 9 15 5 8 - - 0.2
29/07:30am -2.1 -6.1 -2.4 98 0.0 NNE 9 13 5 7 - - 0.2
29/07:00am -2.5 -6.6 -2.8 98 0.0 NNE 9 15 5 8 - - 0.2
29/06:30am -2.4 -6.5 -2.7 98 0.0 NNE 9 11 5 6 - - 0.2
29/06:00am -2.4 -6.1 -2.7 98 0.0 NNE 7 11 4 6 - - 0.2
29/05:30am -2.4 -6.1 -2.7 98 0.0 NNE 7 11 4 6 - - 0.2
29/05:00am -2.4 -6.1 -2.7 98 0.0 NNE 7 11 4 6 - - 0.2
29/04:30am -2.3 -6.0 -2.6 98 0.0 NE 7 9 4 5 - - 0.2
29/04:00am -2.3 -5.8 -2.6 98 0.0 NNE 6 9 3 5 - - 0.2
29/03:30am -2.5 -6.2 -2.8 98 0.0 NE 7 11 4 6 - - 0.2
29/03:00am -2.2 -5.7 -2.5 98 0.0 ENE 6 9 3 5 - - 0.2
29/02:30am -2.2 -5.7 -2.5 98 0.0 ENE 6 9 3 5 - - 0.2
29/02:00am -1.9 -5.5 -2.2 98 0.0 ENE 7 9 4 5 - - 0.2
29/01:30am -1.5 -4.9 -1.8 98 0.0 ENE 6 11 3 6 - - 0.2
29/01:00am -1.4 -5.3 -1.7 98 0.0 ENE 9 13 5 7 - - 0.2
29/12:30am -1.7 -5.7 -2.0 98 0.0 ENE 9 13 5 7 - - 0.2
29/12:00am -1.7 -5.7 -2.0 98 0.0 E 9 11 5 6 - - 0.2
 
Date/Time
EST
Temp
°C
App
Temp
°C
Dew
Point
Rel
Hum
%
Delta-T
°C
Wind Press
QNH
hPa
Press
MSL
hPa
Rain
since 9 am
mm
Dir
 
Spd
km/h
Gust
km/h
Spd
kts
Gust
kts
28/11:30pm -1.5 -5.4 -1.8 98 0.0 E 9 13 5 7 - - 0.2
28/11:00pm -1.5 -5.4 -1.8 98 0.0 E 9 13 5 7 - - 0.2
28/10:30pm -1.2 -5.1 -1.5 98 0.1 E 9 15 5 8 - - 0.2
28/10:00pm -1.2 -5.5 -1.5 98 0.1 E 11 15 6 8 - - 0.2
28/09:30pm -1.2 -5.5 -1.5 98 0.1 E 11 17 6 9 - - 0.2
28/09:00pm -1.4 -5.7 -1.7 98 0.0 E 11 17 6 9 - - 0.2
28/08:30pm -1.1 -5.4 -1.4 98 0.1 ESE 11 20 6 11 - - 0.2
28/08:00pm -1.2 -4.2 -1.5 98 0.1 ESE 4 13 2 7 - - 0.2
28/07:30pm -1.9 -5.9 -2.2 98 0.0 SSE 9 13 5 7 - - 0.2
28/07:00pm -2.0 -5.1 -2.3 98 0.0 SSE 4 7 2 4 - - 0.2
28/06:30pm -1.8 -5.8 -2.1 98 0.0 SSW 9 13 5 7 - - 0.2
28/06:00pm -1.6 -5.6 -1.9 98 0.0 SSW 9 13 5 7 - - 0.2
28/05:30pm -1.4 -5.7 -1.7 98 0.0 SW 11 17 6 9 - - 0.2
28/05:00pm -0.9 -5.1 -1.2 98 0.1 SW 11 17 6 9 - - 0.2
28/04:30pm -0.6 -4.0 -0.9 98 0.1 SW 7 13 4 7 - - 0.2
28/04:00pm -0.2 -3.9 -0.3 99 0.0 SW 9 15 5 8 - - 0.2
28/03:30pm -0.3 -3.5 -0.4 99 0.0 SSW 6 13 3 7 - - 0.2
28/03:00pm -0.2 -3.9 -0.3 99 0.0 SSW 9 13 5 7 - - 0.2
28/02:30pm -0.4 -4.5 -0.5 99 0.0 SW 11 19 6 10 - - 0.2
28/02:00pm -0.2 -3.9 -0.3 99 0.0 SW 9 19 5 10 - - 0.2
28/01:30pm -0.4 -4.5 -0.5 99 0.0 SSW 11 17 6 9 - - 0.2
28/01:00pm -0.6 -4.8 -0.7 99 0.0 SW 11 19 6 10 - - 0.2
28/12:30pm -0.4 -4.2 -0.5 99 0.0 SSW 9 17 5 9 - - 0.0
28/12:00pm -0.8 -3.7 -0.9 99 0.0 SW 4 19 2 10 - - 0.0
28/11:30am -1.3 -3.5 -1.4 99 0.0 CALM 0 0 0 0 - - 0.0
28/11:00am -1.6 -3.8 -1.7 99 0.0 CALM 0 0 0 0 - - 0.0
28/10:30am -1.9 -4.9 -2.0 99 -0.1 SW 4 15 2 8 - - 0.0
28/10:00am -2.7 -7.1 -2.8 99 -0.1 SSW 11 17 6 9 - - 0.0
28/09:30am -3.1 -8.4 -3.2 99 -0.1 SSW 15 22 8 12 - - 0.0
28/09:00am -3.3 -7.8 -3.4 99 -0.1 SSW 11 19 6 10 - - 0.0
28/08:30am -3.5 -8.8 -3.6 99 -0.1 SSW 15 20 8 11 - - 0.0
28/08:00am -3.5 -9.2 -3.6 99 -0.1 SSW 17 22 9 12 - - 0.0
28/07:30am -3.3 -9.0 -3.4 99 -0.1 SSW 17 26 9 14 - - 0.0
28/07:00am -3.3 -9.9 -3.4 99 -0.1 S 22 30 12 16 - - 0.0
28/06:30am -3.7 -10.8 -4.0 98 -0.1 SSW 24 33 13 18 - - 0.0
28/06:00am -4.0 -11.5 -4.3 98 -0.1 SSW 26 39 14 21 - - 0.0
28/05:30am -3.9 -10.6 -4.2 98 -0.1 SW 22 37 12 20 - - 0.0
28/05:00am -4.1 -9.5 -4.4 98 -0.1 SSW 15 22 8 12 - - 0.0
28/04:30am -4.1 -9.9 -4.4 98 -0.1 SSW 17 24 9 13 - - 0.0
28/04:00am -4.2 -10.4 -4.5 98 -0.1 SSW 19 28 10 15 - - 0.0
28/03:30am -4.0 -10.3 -4.3 98 -0.1 SW 20 28 11 15 - - 0.0
28/03:00am -3.9 -10.2 -4.2 98 -0.1 SW 20 35 11 19 - - 0.0
28/02:30am -3.9 -10.0 -4.2 98 -0.1 SW 19 30 10 16 - - 0.0
28/02:00am -3.9 -10.2 -4.2 98 -0.1 SW 20 35 11 19 - - 0.0
28/01:30am -3.8 -10.9 -4.1 98 -0.1 SW 24 39 13 21 - - 0.0
28/01:00am -3.8 -10.9 -4.1 98 -0.1 SW 24 35 13 19 - - 0.0
28/12:30am -3.9 -11.0 -4.2 98 -0.1 SW 24 39 13 21 - - 0.0
28/12:00am -3.8 -10.9 -4.1 98 -0.1 SW 24 37 13 20 - - 0.0
 
Date/Time
EST
Temp
°C
App
Temp
°C
Dew
Point
Rel
Hum
%
Delta-T
°C
Wind Press
QNH
hPa
Press
MSL
hPa
Rain
since 9 am
mm
Dir
 
Spd
km/h
Gust
km/h
Spd
kts
Gust
kts
27/11:30pm -3.9 -10.6 -4.2 98 -0.1 SW 22 35 12 19 - - 0.0
27/11:00pm -3.8 -10.1 -4.1 98 -0.1 SW 20 32 11 17 - - 0.0
27/10:30pm -3.8 -10.5 -4.1 98 -0.1 SW 22 39 12 21 - - 0.0
27/10:00pm -4.0 -10.7 -4.3 98 -0.1 SW 22 37 12 20 - - 0.0
27/09:30pm -4.0 -11.1 -4.3 98 -0.1 SW 24 44 13 24 - - 0.0
27/09:00pm -3.8 -10.9 -4.1 98 -0.1 SW 24 39 13 21 - - 0.0
27/08:30pm -4.0 -10.3 -4.3 98 -0.1 SW 20 43 11 23 - - 0.0
27/08:00pm -3.9 -10.0 -4.2 98 -0.1 WSW 19 33 10 18 - - 0.0
27/07:30pm -4.0 -10.1 -4.3 98 -0.1 WSW 19 30 10 16 - - 0.0
27/07:00pm -4.0 -10.1 -4.3 98 -0.1 SW 19 32 10 17 - - 0.0
27/06:30pm -4.0 -9.8 -4.3 98 -0.1 WSW 17 30 9 16 - - 0.0

Other Formats:

Comma delimited format used in spreadsheet applications
http://www.bom.gov.au/fwo/IDN60801/IDN60801.95925.axf

JavaScript Object Notation format (JSON) in row-major order
http://www.bom.gov.au/fwo/IDN60801/IDN60801.95925.json